Time;durP1;ratioP1;P1;durP2;ratioP2;P2;SDS_P1;SDS_P2;PMS_P1;PMS_P2;Temp;Humidity;BMP_temperature;BMP_pressure;BME280_temperature;BME280_humidity;BME280_pressure;Samples;Min_cycle;Max_cycle;Signal;HPM_P1;HPM_P2
2023/05/31 00:08:21;;;;;;;;;;;;;;;9.68;58.36;99281.61;435505;1254;109904;-43
2023/05/31 00:18:27;;;;;;;;;;;;;;;9.53;58.81;99285.48;435268;1254;108309;-43
2023/05/31 00:28:33;;;;;;;;;;;;;;;9.34;58.96;99288.92;435299;1254;97948;-42
2023/05/31 00:38:39;;;;;;;;;;;;;;;9.20;59.38;99282.88;435367;1254;109670;-43
2023/05/31 00:48:45;;;;;;;;;;;;;;;9.09;59.73;99282.61;435321;1254;107264;-43
2023/05/31 01:08:56;;;;;;;;;;;;;;;8.90;60.39;99285.25;435411;1254;97989;-42
2023/05/31 01:29:10;;;;;;;;;;;;;;;8.67;60.97;99287.62;435232;1252;107816;-43
2023/05/31 01:39:17;;;;;;;;;;;;;;;8.64;60.92;99282.99;438263;1248;97884;-43
2023/05/31 01:49:22;;;;;;;;;;;;;;;8.61;61.21;99292.97;437595;1247;109533;-43
2023/05/31 02:09:36;;;;;;;;;;;;;;;8.66;61.76;99302.99;437544;1248;97992;-43
2023/05/31 02:19:41;;;;;;;;;;;;;;;8.70;61.93;99302.39;437636;1248;108635;-43
2023/05/31 02:29:47;;;;;;;;;;;;;;;8.57;62.22;99308.27;437664;1250;97858;-43
2023/05/31 03:10:14;;;;;;;;;;;;;;;8.25;63.19;99318.70;437487;1250;97824;-42
2023/05/31 03:20:19;;;;;;;;;;;;;;;8.88;63.57;99323.85;437528;1250;111381;-41
2023/05/31 03:30:25;;;;;;;;;;;;;;;11.43;62.20;99321.77;437265;1250;107912;-42
2023/05/31 03:40:31;;;;;;;;;;;;;;;13.98;60.23;99308.02;437560;1250;97881;-43
2023/05/31 03:50:38;;;;;;;;;;;;;;;15.39;57.88;99314.75;437073;1250;517687;-43
2023/05/31 04:00:44;;;;;;;;;;;;;;;17.01;56.26;99313.48;437421;1250;108642;-43
2023/05/31 04:10:51;;;;;;;;;;;;;;;18.36;54.39;99316.61;437395;1250;97886;-42
2023/05/31 04:41:07;;;;;;;;;;;;;;;20.93;50.38;99332.61;437346;1248;97750;-44
2023/05/31 04:51:13;;;;;;;;;;;;;;;21.44;49.32;99343.61;437378;1246;110636;-42
2023/05/31 05:01:19;;;;;;;;;;;;;;;21.28;48.33;99345.97;437442;1250;107134;-42
2023/05/31 05:11:24;;;;;;;;;;;;;;;21.57;47.95;99348.09;437373;1247;97862;-41
2023/05/31 05:21:30;;;;;;;;;;;;;;;21.39;46.96;99342.98;437290;1250;111151;-42
2023/05/31 05:31:36;;;;;;;;;;;;;;;19.80;46.30;99346.52;437241;1254;108525;-41
2023/05/31 05:41:42;;;;;;;;;;;;;;;19.39;47.34;99343.71;438102;1251;97356;-42
2023/05/31 05:51:48;;;;;;;;;;;;;;;20.02;47.42;99339.42;437164;1253;96578;-41
2023/05/31 06:01:54;;;;;;;;;;;;;;;20.30;46.87;99342.60;436522;1247;110711;-42
2023/05/31 06:12:00;;;;;;;;;;;;;;;20.15;45.95;99340.81;436433;1254;108013;-42
2023/05/31 06:22:06;;;;;;;;;;;;;;;20.31;45.97;99336.36;436526;1253;97871;-42
2023/05/31 06:32:12;;;;;;;;;;;;;;;20.42;45.71;99340.19;436572;1247;110627;-41
2023/05/31 06:42:18;;;;;;;;;;;;;;;20.68;45.71;99336.17;437568;1250;107865;-42
2023/05/31 06:52:24;;;;;;;;;;;;;;;21.07;44.90;99335.14;437472;1247;97498;-42
2023/05/31 07:02:30;;;;;;;;;;;;;;;21.32;44.72;99325.30;437552;1247;109929;-44
2023/05/31 07:12:36;;;;;;;;;;;;;;;22.02;44.28;99321.94;437418;1250;107867;-41
2023/05/31 07:22:41;;;;;;;;;;;;;;;22.03;43.75;99320.56;437289;1250;97871;-43
2023/05/31 07:32:47;;;;;;;;;;;;;;;22.22;42.90;99319.96;437357;1247;111402;-42
2023/05/31 07:42:54;;;;;;;;;;;;;;;22.32;42.65;99317.71;437345;1247;108247;-42
2023/05/31 07:53:00;;;;;;;;;;;;;;;23.20;42.00;99313.19;437382;1250;96618;-42
2023/05/31 08:03:07;;;;;;;;;;;;;;;22.80;40.53;99311.34;437368;1250;111556;-43
2023/05/31 08:13:13;;;;;;;;;;;;;;;22.24;38.67;99305.59;437349;1250;108595;-42
2023/05/31 08:23:18;;;;;;;;;;;;;;;21.92;38.80;99304.31;437269;1250;96619;-43
2023/05/31 08:33:26;;;;;;;;;;;;;;;21.53;39.05;99304.15;437494;1250;110300;-43
2023/05/31 08:53:38;;;;;;;;;;;;;;;21.70;39.02;99296.84;437417;1250;97884;-44
2023/05/31 09:03:45;;;;;;;;;;;;;;;22.21;38.91;99288.40;437480;1250;110610;-42
2023/05/31 09:13:50;;;;;;;;;;;;;;;22.27;38.03;99286.69;437733;1250;109172;-43
2023/05/31 09:23:58;;;;;;;;;;;;;;;21.94;37.90;99281.07;437559;1250;97544;-41
2023/05/31 09:34:04;;;;;;;;;;;;;;;22.04;36.99;99280.77;437515;1250;109868;-42
2023/05/31 09:44:11;;;;;;;;;;;;;;;21.93;36.43;99270.96;437369;1250;107934;-41
2023/05/31 09:54:17;;;;;;;;;;;;;;;22.54;36.17;99268.71;437494;1250;97861;-42
2023/05/31 10:04:23;;;;;;;;;;;;;;;22.49;36.08;99265.87;437506;1250;109395;-42
2023/05/31 10:14:30;;;;;;;;;;;;;;;22.99;35.97;99255.17;437289;1250;108587;-43
2023/05/31 10:24:36;;;;;;;;;;;;;;;23.07;35.68;99242.20;437480;1250;96923;-43
2023/05/31 10:34:42;;;;;;;;;;;;;;;23.52;35.31;99225.37;437549;1250;110751;-43
2023/05/31 10:44:46;;;;;;;;;;;;;;;22.95;34.73;99216.55;437614;1250;97951;-44
2023/05/31 10:54:50;;;;;;;;;;;;;;;22.47;35.37;99214.64;437492;1250;117599;-44
2023/05/31 11:04:56;;;;;;;;;;;;;;;23.06;35.44;99208.30;437337;1250;110926;-43
2023/05/31 11:15:00;;;;;;;;;;;;;;;23.19;35.20;99202.39;437288;1250;97960;-44
2023/05/31 11:25:09;;;;;;;;;;;;;;;23.42;34.51;99196.07;437514;1250;97466;-42
2023/05/31 11:35:15;;;;;;;;;;;;;;;23.47;33.96;99184.79;437579;1250;110291;-41
2023/05/31 11:45:23;;;;;;;;;;;;;;;23.37;33.89;99179.49;437552;1250;108360;-46
2023/05/31 12:05:36;;;;;;;;;;;;;;;23.64;33.85;99164.86;437550;1250;111654;-42
2023/05/31 12:15:42;;;;;;;;;;;;;;;23.55;33.41;99154.63;437493;1250;107285;-43
2023/05/31 12:25:46;;;;;;;;;;;;;;;23.67;33.27;99157.46;437761;1250;97862;-42
2023/05/31 12:35:53;;;;;;;;;;;;;;;23.78;33.19;99146.27;437431;1250;110927;-43
2023/05/31 12:46:00;;;;;;;;;;;;;;;23.75;33.40;99139.82;437454;1250;108626;-44
2023/05/31 12:56:05;;;;;;;;;;;;;;;23.64;33.47;99137.08;437290;1250;97855;-42
2023/05/31 13:06:10;;;;;;;;;;;;;;;23.76;33.15;99127.85;437462;1250;97900;-43
2023/05/31 13:16:16;;;;;;;;;;;;;;;23.52;32.43;99128.71;437397;1250;107828;-42
2023/05/31 13:26:23;;;;;;;;;;;;;;;23.31;32.08;99115.76;437646;1250;97860;-43
2023/05/31 13:36:29;;;;;;;;;;;;;;;23.51;31.91;99104.44;437411;1250;110736;-43
2023/05/31 13:56:40;;;;;;;;;;;;;;;23.68;31.74;99083.09;437440;1250;97013;-42
2023/05/31 14:06:46;;;;;;;;;;;;;;;23.74;31.66;99063.90;438035;1250;110390;-42
2023/05/31 14:26:57;;;;;;;;;;;;;;;23.59;30.87;99044.31;437952;1250;97752;-44
2023/05/31 14:37:02;;;;;;;;;;;;;;;23.70;30.90;99040.16;438021;1250;109329;-42
2023/05/31 14:47:07;;;;;;;;;;;;;;;23.75;30.37;99037.95;437410;1250;108276;-42
2023/05/31 14:57:13;;;;;;;;;;;;;;;23.82;30.64;99030.59;437551;1250;97464;-43
2023/05/31 15:07:18;;;;;;;;;;;;;;;23.76;30.47;99019.69;437085;1258;110737;-43
2023/05/31 15:17:24;;;;;;;;;;;;;;;23.75;30.82;99012.73;436461;1252;109367;-42
2023/05/31 15:27:29;;;;;;;;;;;;;;;23.54;31.05;98997.42;436407;1254;97883;-42
2023/05/31 15:37:35;;;;;;;;;;;;;;;23.54;31.11;98990.86;437089;1248;110899;-42
2023/05/31 15:47:40;;;;;;;;;;;;;;;23.37;31.05;98991.45;437237;1248;97966;-44
2023/05/31 15:57:46;;;;;;;;;;;;;;;23.17;30.83;98983.16;436124;1261;349890;-43
2023/05/31 16:07:52;;;;;;;;;;;;;;;22.78;31.54;98978.74;436751;1254;110028;-43
2023/05/31 16:17:57;;;;;;;;;;;;;;;22.35;31.72;98969.40;436843;1252;109943;-43
2023/05/31 16:28:03;;;;;;;;;;;;;;;22.09;31.99;98961.30;436331;1254;97981;-43
2023/05/31 16:38:09;;;;;;;;;;;;;;;21.93;32.44;98955.58;436474;1248;97900;-43
2023/05/31 16:48:15;;;;;;;;;;;;;;;21.83;32.71;98951.52;436469;1254;109863;-43
2023/05/31 16:58:20;;;;;;;;;;;;;;;21.76;32.91;98946.56;436381;1253;97868;-42
2023/05/31 17:08:26;;;;;;;;;;;;;;;21.63;33.04;98938.86;436404;1253;98052;-42
2023/05/31 17:28:37;;;;;;;;;;;;;;;21.40;33.43;98933.57;436384;1255;106736;-42
2023/05/31 17:38:42;;;;;;;;;;;;;;;21.24;33.93;98924.45;436387;1252;97877;-43
2023/05/31 17:48:47;;;;;;;;;;;;;;;20.99;34.22;98920.44;436277;1248;109904;-42
2023/05/31 17:58:53;;;;;;;;;;;;;;;20.73;34.69;98911.02;436423;1253;109051;-44
2023/05/31 18:08:59;;;;;;;;;;;;;;;20.46;35.26;98912.85;436761;1254;97976;-43
2023/05/31 18:19:05;;;;;;;;;;;;;;;20.02;36.03;98905.37;436464;1261;112054;-43
2023/05/31 18:29:11;;;;;;;;;;;;;;;19.41;36.91;98902.80;436391;1253;107347;-43
2023/05/31 18:39:17;;;;;;;;;;;;;;;18.78;37.93;98900.63;436425;1253;96901;-43
2023/05/31 18:49:23;;;;;;;;;;;;;;;18.12;39.05;98901.14;436433;1248;110811;-42
2023/05/31 19:09:34;;;;;;;;;;;;;;;16.93;41.49;98898.54;436427;1248;97864;-43
2023/05/31 19:19:40;;;;;;;;;;;;;;;16.45;42.67;98905.30;436438;1253;109641;-43
2023/05/31 19:29:46;;;;;;;;;;;;;;;15.99;43.54;98907.80;436696;1254;107578;-43
2023/05/31 19:39:52;;;;;;;;;;;;;;;15.58;44.30;98910.00;436238;1253;97380;-43
2023/05/31 19:49:58;;;;;;;;;;;;;;;15.20;45.02;98910.46;437032;1254;109536;-42
2023/05/31 20:00:04;;;;;;;;;;;;;;;14.92;45.53;98907.54;437231;1253;107305;-42
2023/05/31 20:10:08;;;;;;;;;;;;;;;14.66;45.92;98905.77;437511;1254;97822;-43
2023/05/31 20:30:19;;;;;;;;;;;;;;;14.25;46.89;98898.90;436338;1252;108979;-43
2023/05/31 21:00:36;;;;;;;;;;;;;;;13.65;47.98;98877.02;436582;1253;107843;-43
2023/05/31 21:10:41;;;;;;;;;;;;;;;13.58;48.71;98880.64;436430;1258;97900;-43
2023/05/31 21:20:46;;;;;;;;;;;;;;;13.48;49.10;98877.56;436399;1253;110734;-42
2023/05/31 21:30:52;;;;;;;;;;;;;;;13.33;49.89;98880.95;436663;1252;108765;-44
2023/05/31 21:40:57;;;;;;;;;;;;;;;13.22;50.88;98876.23;436332;1253;97406;-42
2023/05/31 21:51:07;;;;;;;;;;;;;;;13.10;51.72;98874.89;436618;1248;109604;-42
2023/05/31 22:11:19;;;;;;;;;;;;;;;12.88;53.29;98875.22;436446;1253;97868;-43
2023/05/31 22:21:25;;;;;;;;;;;;;;;12.78;53.71;98878.16;436274;1253;110382;-42
2023/05/31 22:41:35;;;;;;;;;;;;;;;12.64;54.41;98876.20;436320;1250;97934;-43
2023/05/31 22:51:42;;;;;;;;;;;;;;;12.49;54.79;98873.45;436507;1253;110752;-42
2023/05/31 23:01:48;;;;;;;;;;;;;;;12.44;54.88;98870.40;438176;1253;108269;-43
2023/05/31 23:11:54;;;;;;;;;;;;;;;12.51;55.08;98867.56;437550;1253;97340;-42
2023/05/31 23:22:00;;;;;;;;;;;;;;;12.53;55.18;98857.11;436278;1253;111565;-43
2023/05/31 23:32:07;;;;;;;;;;;;;;;12.41;55.48;98852.11;436481;1253;107020;-43
2023/05/31 23:42:13;;;;;;;;;;;;;;;12.30;55.94;98845.94;436520;1248;96631;-42
2023/05/31 23:52:19;;;;;;;;;;;;;;;12.06;56.33;98844.88;437002;1254;111333;-42
